< < Back
Terminal Aerodrome Forecast


Current Version              Previous Versions:   1  2  3  4  5  6  7  8  9  

Terminal Aerodrome Forecast

040
FTUS42 KFFC 271720
TAFPDK
TAF
KPDK 271720Z 2718/2818 30015G25KT P6SM BKN035
     FM280000 32010KT P6SM SCT040
     FM280400 32006KT P6SM FEW040
     FM281200 33003KT P6SM SKC=

Latest METAR

401
SAUS70 KWBC 281000 RRE
MTRPDK
METAR KPDK 280953Z AUTO 34004KT 10SM CLR M02/M07 A3036 RMK AO2 SLP296
T10221067


USA.gov is the U.S. government's official web portal to all federal, state and local government web resources and services.